createdAt,value
2023-08-23T00:01:24.244Z,96719.88
2023-08-23T00:03:53.028Z,96718.81
2023-08-23T00:06:20.266Z,96715.34
2023-08-23T00:08:47.215Z,96717.44
2023-08-23T00:11:14.143Z,96710.72
2023-08-23T00:13:41.077Z,96711.03
2023-08-23T00:16:08.001Z,96711.03
2023-08-23T00:18:34.896Z,96707.56
2023-08-23T00:21:01.808Z,96707.25
2023-08-23T00:23:28.650Z,96708.38
2023-08-23T00:25:55.528Z,96708.38
2023-08-23T00:28:22.425Z,96709.25
2023-08-23T00:30:58.584Z,96720.28
2023-08-23T00:33:25.547Z,96729.34
2023-08-23T00:35:52.477Z,96738.72
2023-08-23T00:38:19.377Z,96743.50
2023-08-23T00:40:46.255Z,96759.28
2023-08-23T00:43:13.091Z,96765.75
2023-08-23T00:45:42.723Z,96743.28
2023-08-23T00:48:12.848Z,96729.78
2023-08-23T00:50:41.889Z,96711.47
2023-08-23T00:53:09.783Z,96707.25
2023-08-23T00:55:36.992Z,96700.81
2023-08-23T00:58:05.251Z,96726.97
2023-08-23T01:00:33.435Z,96742.56
2023-08-23T01:03:01.147Z,96753.63
2023-08-23T01:06:05.097Z,96756.19
2023-08-23T01:09:17.745Z,96727.44
2023-08-23T01:12:08.622Z,96730.50
2023-08-23T01:14:59.682Z,96735.91
2023-08-23T01:17:28.093Z,96725.63
2023-08-23T01:19:57.349Z,96717.84
2023-08-23T01:22:25.528Z,96722.44
2023-08-23T01:24:52.874Z,96723.81
2023-08-23T01:27:20.432Z,96728.31
2023-08-23T01:29:48.333Z,96725.06
2023-08-23T01:32:42.962Z,96737.47
2023-08-23T01:35:20.918Z,96733.97
2023-08-23T01:37:54.748Z,96730.50
2023-08-23T01:40:22.677Z,96728.03
2023-08-23T01:42:49.890Z,96738.50
2023-08-23T01:45:16.967Z,96749.28
2023-08-23T01:47:43.825Z,96750.38
2023-08-23T01:50:11.043Z,96754.09
2023-08-23T01:52:37.891Z,96763.47
2023-08-23T01:55:05.278Z,96755.66
2023-08-23T01:57:32.156Z,96751.34
2023-08-23T01:59:59.031Z,96752.44
2023-08-23T02:02:25.933Z,96755.91
2023-08-23T02:04:52.827Z,96745.16
2023-08-23T02:07:19.667Z,96732.03
2023-08-23T02:09:46.598Z,96735.50
2023-08-23T02:12:13.472Z,96739.56
2023-08-23T02:14:40.326Z,96733.13
2023-08-23T02:17:07.449Z,96736.38
2023-08-23T02:19:34.333Z,96736.38
2023-08-23T02:22:01.209Z,96732.31
2023-08-23T02:24:28.113Z,96742.25
2023-08-23T02:26:54.975Z,96745.22
2023-08-23T02:29:21.913Z,96750.81
2023-08-23T02:31:48.765Z,96749.75
2023-08-23T02:34:15.659Z,96748.16
2023-08-23T02:36:42.541Z,96741.22
2023-08-23T02:39:10.697Z,96737.41
2023-08-23T02:41:37.518Z,96735.84
2023-08-23T02:44:04.593Z,96737.47
2023-08-23T02:46:31.524Z,96745.53
2023-08-23T02:48:58.387Z,96746.63
2023-08-23T02:51:25.246Z,96740.16
2023-08-23T02:53:52.222Z,96733.19
2023-08-23T02:56:19.100Z,96733.47
2023-08-23T02:58:46.011Z,96729.16
2023-08-23T03:01:12.892Z,96734.84
2023-08-23T03:03:39.873Z,96748.78
2023-08-23T03:06:06.725Z,96745.03
2023-08-23T03:08:33.563Z,96751.69
2023-08-23T03:11:08.473Z,96757.34
2023-08-23T03:13:35.900Z,96744.47
2023-08-23T03:16:03.145Z,96751.44
2023-08-23T03:18:30.370Z,96749.81
2023-08-23T03:20:57.257Z,96751.47
2023-08-23T03:23:24.180Z,96755.75
2023-08-23T03:25:51.592Z,96761.63
2023-08-23T03:28:18.530Z,96755.16
2023-08-23T03:30:45.762Z,96749.81
2023-08-23T03:33:12.768Z,96750.88
2023-08-23T03:35:39.664Z,96751.97
2023-08-23T03:38:06.799Z,96744.47
2023-08-23T03:40:39.373Z,96754.13
2023-08-23T03:43:06.758Z,96757.34
2023-08-23T03:45:34.799Z,96767.00
2023-08-23T03:48:01.820Z,96754.66
2023-08-23T03:50:28.794Z,96755.72
2023-08-23T03:52:55.692Z,96752.78
2023-08-23T03:55:22.577Z,96766.19
2023-08-23T03:57:52.031Z,96782.03
2023-08-23T04:00:19.140Z,96758.41
2023-08-23T04:02:46.688Z,96757.88
2023-08-23T04:05:13.787Z,96762.69
2023-08-23T04:07:41.918Z,96758.41
2023-08-23T04:10:09.343Z,96743.97
2023-08-23T04:12:36.311Z,96743.97
2023-08-23T04:15:04.202Z,96769.13
2023-08-23T04:17:31.234Z,96794.59
2023-08-23T04:19:58.181Z,96799.22
2023-08-23T04:22:25.089Z,96783.38
2023-08-23T04:24:52.509Z,96758.13
2023-08-23T04:27:19.490Z,96772.91
2023-08-23T04:29:46.391Z,96780.41
2023-08-23T04:32:14.139Z,96768.63
2023-08-23T04:34:41.329Z,96765.69
2023-08-23T04:37:08.515Z,96774.78
2023-08-23T04:39:35.564Z,96772.38
2023-08-23T04:42:02.810Z,96767.53
2023-08-23T04:44:30.480Z,96772.88
2023-08-23T04:46:59.074Z,96770.19
2023-08-23T04:49:26.030Z,96756.25
2023-08-23T04:51:53.014Z,96766.44
2023-08-23T04:54:19.871Z,96768.88
2023-08-23T04:56:46.814Z,96772.34
2023-08-23T04:59:13.707Z,96776.47
2023-08-23T05:01:40.776Z,96773.03
2023-08-23T05:04:08.679Z,96764.78
2023-08-23T05:06:36.445Z,96765.34
2023-08-23T05:09:05.856Z,96777.66
2023-08-23T05:11:33.285Z,96776.63
2023-08-23T05:14:00.181Z,96779.78
2023-08-23T05:16:27.130Z,96786.28
2023-08-23T05:18:54.089Z,96787.00
2023-08-23T05:21:20.965Z,96797.03
2023-08-23T05:23:47.899Z,96787.38
2023-08-23T05:26:14.798Z,96790.63
2023-08-23T05:28:41.619Z,96785.78
2023-08-23T05:31:08.548Z,96775.06
2023-08-23T05:33:35.490Z,96783.38
2023-08-23T05:36:02.393Z,96783.13
2023-08-23T05:38:30.387Z,96785.28
2023-08-23T05:40:57.337Z,96781.25
2023-08-23T05:43:24.487Z,96781.22
2023-08-23T05:45:55.955Z,96782.53
2023-08-23T05:48:23.386Z,96787.41
2023-08-23T05:50:50.499Z,96785.25
2023-08-23T05:53:20.809Z,96780.63
2023-08-23T05:55:49.601Z,96772.00
2023-08-23T05:58:19.133Z,96775.97
2023-08-23T06:00:48.050Z,96778.84
2023-08-23T06:03:18.674Z,96776.34
2023-08-23T06:05:45.982Z,96775.22
2023-08-23T06:08:12.939Z,96776.72
2023-08-23T06:10:39.924Z,96766.03
2023-08-23T06:13:06.811Z,96767.50
2023-08-23T06:15:33.722Z,96779.41
2023-08-23T06:18:00.756Z,96770.38
2023-08-23T06:20:29.947Z,96773.53
2023-08-23T06:22:58.943Z,96772.31
2023-08-23T06:25:26.118Z,96780.00
2023-08-23T06:27:53.066Z,96778.66
2023-08-23T06:30:20.055Z,96778.97
2023-08-23T06:32:50.419Z,96775.31
2023-08-23T06:35:18.713Z,96781.28
2023-08-23T06:37:46.512Z,96782.38
2023-08-23T06:40:15.303Z,96775.91
2023-08-23T06:42:42.243Z,96782.88
2023-08-23T06:45:10.727Z,96789.84
2023-08-23T06:47:38.714Z,96785.31
2023-08-23T06:50:10.534Z,96784.78
2023-08-23T06:52:39.929Z,96789.53
2023-08-23T06:55:07.721Z,96788.53
2023-08-23T06:57:34.828Z,96787.66
2023-08-23T07:00:01.861Z,96778.03
2023-08-23T07:02:28.804Z,96792.38
2023-08-23T07:04:55.783Z,96789.97
2023-08-23T07:07:23.255Z,96796.78
2023-08-23T07:09:51.219Z,96800.75
2023-08-23T07:12:18.305Z,96801.69
2023-08-23T07:14:48.034Z,96804.72
2023-08-23T07:17:15.158Z,96808.94
2023-08-23T07:19:42.131Z,96810.59
2023-08-23T07:22:09.122Z,96812.09
2023-08-23T07:24:36.012Z,96816.53
2023-08-23T07:27:02.959Z,96817.03
2023-08-23T07:29:30.588Z,96815.69
2023-08-23T07:31:58.586Z,96817.19
2023-08-23T07:34:26.830Z,96815.72
2023-08-23T07:36:53.793Z,96813.84
2023-08-23T07:39:21.151Z,96816.38
2023-08-23T07:41:48.033Z,96815.59
2023-08-23T07:44:14.927Z,96823.28
2023-08-23T07:46:41.799Z,96818.94
2023-08-23T07:49:08.731Z,96820.94
2023-08-23T07:51:35.620Z,96822.78
2023-08-23T07:54:04.173Z,96823.03
2023-08-23T07:56:31.037Z,96812.34
2023-08-23T07:58:58.262Z,96820.84
2023-08-23T08:01:25.403Z,96817.34
2023-08-23T08:03:52.843Z,96804.97
2023-08-23T08:06:20.331Z,96804.25
2023-08-23T08:08:47.232Z,96816.81
2023-08-23T08:11:15.622Z,96817.31
2023-08-23T08:13:42.883Z,96810.19
2023-08-23T08:16:15.397Z,96806.88
2023-08-23T08:18:44.220Z,96806.88
2023-08-23T08:21:11.598Z,96808.75
2023-08-23T08:23:38.705Z,96807.50
2023-08-23T08:26:07.906Z,96816.63
2023-08-23T08:28:35.054Z,96807.69
2023-08-23T08:31:01.991Z,96811.50
2023-08-23T08:33:28.889Z,96814.84
2023-08-23T08:35:55.730Z,96818.75
2023-08-23T08:38:23.648Z,96817.31
2023-08-23T08:40:51.395Z,96812.16
2023-08-23T08:43:19.417Z,96812.63
2023-08-23T08:45:47.185Z,96821.97
2023-08-23T08:48:14.274Z,96812.03
2023-08-23T08:50:44.009Z,96816.81
2023-08-23T08:53:18.308Z,96802.25
2023-08-23T08:55:49.833Z,96795.94
2023-08-23T08:58:20.953Z,96804.19
2023-08-23T09:00:53.842Z,96797.63
2023-08-23T09:03:21.488Z,96799.19
2023-08-23T09:05:51.884Z,96794.72
2023-08-23T09:08:18.981Z,96790.31
2023-08-23T09:10:46.139Z,96791.88
2023-08-23T09:13:13.288Z,96790.75
2023-08-23T09:15:40.467Z,96786.44
2023-08-23T09:18:07.565Z,96781.34
2023-08-23T09:20:36.052Z,96784.63
2023-08-23T09:23:02.950Z,96783.84
2023-08-23T09:25:29.964Z,96779.50
2023-08-23T09:27:57.299Z,96780.00
2023-08-23T09:30:24.688Z,96777.38
2023-08-23T09:32:51.591Z,96782.13
2023-08-23T09:35:19.345Z,96776.50
2023-08-23T09:37:50.392Z,96776.31
2023-08-23T09:40:26.389Z,96782.91
2023-08-23T09:42:57.149Z,96776.59
2023-08-23T09:45:26.728Z,96771.97
2023-08-23T09:48:00.600Z,96777.84
2023-08-23T09:50:29.530Z,96772.97
2023-08-23T09:53:05.658Z,96775.59
2023-08-23T09:55:35.817Z,96772.06
2023-08-23T09:58:03.782Z,96766.34
2023-08-23T10:00:31.198Z,96764.03
2023-08-23T10:02:59.042Z,96776.59
2023-08-23T10:05:28.145Z,96764.63
2023-08-23T10:07:57.337Z,96761.44
2023-08-23T10:10:25.391Z,96764.84
2023-08-23T10:12:56.840Z,96760.25
2023-08-23T10:15:33.066Z,96767.31
2023-08-23T10:18:02.170Z,96766.50
2023-08-23T10:20:29.260Z,96769.59
2023-08-23T10:22:59.418Z,96761.09
2023-08-23T10:25:26.843Z,96754.34
2023-08-23T10:27:57.149Z,96754.69
2023-08-23T10:30:29.987Z,96754.94
2023-08-23T10:33:09.912Z,96755.59
2023-08-23T10:35:38.733Z,96751.63
2023-08-23T10:38:10.088Z,96753.84
2023-08-23T10:40:39.669Z,96756.28
2023-08-23T10:43:16.000Z,96754.63
2023-08-23T10:45:49.626Z,96756.53
2023-08-23T10:48:20.130Z,96760.00
2023-08-23T10:50:48.680Z,96761.25
2023-08-23T10:53:17.915Z,96751.34
2023-08-23T10:55:46.099Z,96760.59
2023-08-23T10:58:14.815Z,96740.84
2023-08-23T11:00:51.871Z,96748.16
2023-08-23T11:03:20.977Z,96740.78
2023-08-23T11:05:48.499Z,96740.28
2023-08-23T11:08:16.954Z,96737.28
2023-08-23T11:10:44.997Z,96743.41
2023-08-23T11:13:13.130Z,96736.91
2023-08-23T11:15:42.259Z,96723.91
2023-08-23T11:18:09.202Z,96729.16
2023-08-23T11:20:36.297Z,96724.09
2023-08-23T11:23:04.952Z,96727.72
2023-08-23T11:25:33.090Z,96722.63
2023-08-23T11:28:00.516Z,96718.31
2023-08-23T11:30:28.295Z,96710.09
2023-08-23T11:32:58.062Z,96710.25
2023-08-23T11:35:25.112Z,96725.31
2023-08-23T11:37:54.705Z,96710.13
2023-08-23T11:40:24.214Z,96718.44
2023-08-23T11:43:08.032Z,96719.69
2023-08-23T11:45:43.630Z,96716.47
2023-08-23T11:48:12.092Z,96721.03
2023-08-23T11:50:40.194Z,96708.53
2023-08-23T11:53:09.901Z,96717.91
2023-08-23T11:55:37.449Z,96716.16
2023-08-23T11:58:05.357Z,96718.63
2023-08-23T12:00:32.503Z,96710.25
2023-08-23T12:02:59.380Z,96708.53
2023-08-23T12:05:26.624Z,96712.38
2023-08-23T12:07:54.154Z,96703.06
2023-08-23T12:10:21.132Z,96703.09
2023-08-23T12:12:48.339Z,96696.25
2023-08-23T12:15:15.190Z,96697.25
2023-08-23T12:17:42.035Z,96708.53
2023-08-23T12:20:11.683Z,96690.16
2023-08-23T12:22:45.404Z,96689.44
2023-08-23T12:25:12.289Z,96691.25
2023-08-23T12:27:39.274Z,96691.53
2023-08-23T12:30:07.419Z,96685.38
2023-08-23T12:32:34.340Z,96684.91
2023-08-23T12:35:04.857Z,96688.41
2023-08-23T12:37:31.818Z,96681.78
2023-08-23T12:39:58.662Z,96669.44
2023-08-23T12:42:25.529Z,96674.50
2023-08-23T12:44:52.391Z,96667.63
2023-08-23T12:47:19.309Z,96667.81
2023-08-23T12:49:46.224Z,96660.94
2023-08-23T12:52:14.156Z,96664.94
2023-08-23T12:54:41.071Z,96666.41
2023-08-23T12:57:08.111Z,96674.06
2023-08-23T12:59:34.976Z,96667.09
2023-08-23T13:02:01.927Z,96663.66
2023-08-23T13:04:28.853Z,96663.53
2023-08-23T13:06:55.692Z,96664.09
2023-08-23T13:09:23.584Z,96671.03
2023-08-23T13:11:50.471Z,96662.69
2023-08-23T13:14:18.358Z,96664.50
2023-08-23T13:16:45.215Z,96663.34
2023-08-23T13:19:12.063Z,96659.25
2023-08-23T13:21:39.188Z,96658.38
2023-08-23T13:24:06.294Z,96667.00
2023-08-23T13:26:35.129Z,96667.78
2023-08-23T13:29:02.001Z,96657.00
2023-08-23T13:31:29.248Z,96650.88
2023-08-23T13:33:56.192Z,96656.50
2023-08-23T13:36:23.044Z,96647.69
2023-08-23T13:38:49.908Z,96650.47
2023-08-23T13:41:16.802Z,96653.47
2023-08-23T13:43:43.651Z,96654.09
2023-08-23T13:46:11.187Z,96649.84
2023-08-23T13:48:38.680Z,96652.91
2023-08-23T13:51:06.611Z,96650.38
2023-08-23T13:53:33.482Z,96640.94
2023-08-23T13:56:00.369Z,96643.84
2023-08-23T13:58:27.275Z,96644.09
2023-08-23T14:00:54.253Z,96640.38
2023-08-23T14:03:21.150Z,96631.41
2023-08-23T14:05:48.225Z,96631.69
2023-08-23T14:08:15.106Z,96632.19
2023-08-23T14:10:41.957Z,96626.06
2023-08-23T14:13:08.917Z,96628.28
2023-08-23T14:15:35.844Z,96631.59
2023-08-23T14:18:02.752Z,96634.13
2023-08-23T14:20:29.631Z,96618.63
2023-08-23T14:22:56.491Z,96628.28
2023-08-23T14:25:23.338Z,96630.00
2023-08-23T14:27:50.549Z,96627.78
2023-08-23T14:30:17.631Z,96636.88
2023-08-23T14:32:51.686Z,96620.06
2023-08-23T14:35:19.437Z,96630.19
2023-08-23T14:37:47.443Z,96622.41
2023-08-23T14:40:15.391Z,96625.59
2023-08-23T14:42:43.410Z,96624.28
2023-08-23T14:45:11.308Z,96628.31
2023-08-23T14:47:38.447Z,96630.41
2023-08-23T14:50:06.178Z,96624.78
2023-08-23T14:52:34.088Z,96639.75
2023-08-23T14:55:09.947Z,96627.91
2023-08-23T14:57:37.700Z,96627.16
2023-08-23T15:00:05.912Z,96624.16
2023-08-23T15:02:35.159Z,96623.09
2023-08-23T15:05:03.480Z,96620.38
2023-08-23T15:07:30.661Z,96617.19
2023-08-23T15:09:57.573Z,96612.19
2023-08-23T15:12:24.544Z,96607.44
2023-08-23T15:14:51.482Z,96616.91
2023-08-23T15:17:18.902Z,96614.09
2023-08-23T15:19:47.837Z,96616.41
2023-08-23T15:22:14.840Z,96613.47
2023-08-23T15:24:41.706Z,96611.41
2023-08-23T15:27:09.089Z,96616.09
2023-08-23T15:29:40.508Z,96613.41
2023-08-23T15:32:12.218Z,96617.50
2023-08-23T15:34:53.321Z,96617.97
2023-08-23T15:37:21.768Z,96623.00
2023-08-23T15:39:50.249Z,96615.50
2023-08-23T15:42:17.347Z,96617.75
2023-08-23T15:44:44.828Z,96622.06
2023-08-23T15:47:11.823Z,96627.66
2023-08-23T15:49:38.675Z,96629.88
2023-08-23T15:52:05.884Z,96627.72
2023-08-23T15:54:33.045Z,96625.41
2023-08-23T15:57:00.000Z,96626.28
2023-08-23T15:59:28.876Z,96626.72
2023-08-23T16:01:56.409Z,96634.41
2023-08-23T16:04:24.946Z,96622.47
2023-08-23T16:06:56.289Z,96630.16
2023-08-23T16:09:23.911Z,96621.50
2023-08-23T16:11:51.064Z,96624.47
2023-08-23T16:14:18.369Z,96620.06
2023-08-23T16:16:45.241Z,96619.59
2023-08-23T16:19:12.573Z,96619.81
2023-08-23T16:21:39.742Z,96617.28
2023-08-23T16:24:06.684Z,96623.06
2023-08-23T16:26:33.542Z,96622.59
2023-08-23T16:29:00.999Z,96625.13
2023-08-23T16:31:28.298Z,96624.19
2023-08-23T16:33:55.165Z,96624.13
2023-08-23T16:36:22.061Z,96619.09
2023-08-23T16:38:51.228Z,96619.03
2023-08-23T16:41:18.187Z,96619.66
2023-08-23T16:43:45.063Z,96620.28
2023-08-23T16:46:12.118Z,96625.25
2023-08-23T16:48:39.055Z,96623.28
2023-08-23T16:51:06.407Z,96631.00
2023-08-23T16:53:33.334Z,96624.94
2023-08-23T16:56:00.188Z,96632.75
2023-08-23T16:58:29.067Z,96637.38
2023-08-23T17:00:57.903Z,96628.94
2023-08-23T17:03:24.819Z,96629.75
2023-08-23T17:05:51.994Z,96630.09
2023-08-23T17:08:18.892Z,96630.75
2023-08-23T17:10:45.817Z,96639.72
2023-08-23T17:13:12.708Z,96642.28
2023-08-23T17:15:39.572Z,96640.97
2023-08-23T17:18:06.618Z,96648.81
2023-08-23T17:20:33.550Z,96648.66
2023-08-23T17:23:01.698Z,96646.41
2023-08-23T17:25:29.036Z,96655.50
2023-08-23T17:28:01.186Z,96655.31
2023-08-23T17:30:29.815Z,96660.41
2023-08-23T17:32:56.689Z,96663.66
2023-08-23T17:35:23.581Z,96655.72
2023-08-23T17:37:50.672Z,96662.81
2023-08-23T17:40:17.637Z,96658.34
2023-08-23T17:42:45.227Z,96655.81
2023-08-23T17:45:12.319Z,96660.75
2023-08-23T17:47:39.449Z,96656.44
2023-08-23T17:50:06.786Z,96666.53
2023-08-23T17:52:33.803Z,96664.22
2023-08-23T17:55:00.730Z,96666.97
2023-08-23T17:57:27.803Z,96660.94
2023-08-23T17:59:54.645Z,96662.28
2023-08-23T18:02:21.575Z,96662.41
2023-08-23T18:04:48.478Z,96659.44
2023-08-23T18:07:15.359Z,96662.47
2023-08-23T18:09:44.255Z,96675.72
2023-08-23T18:12:11.507Z,96677.53
2023-08-23T18:14:38.370Z,96672.94
2023-08-23T18:17:05.467Z,96681.16
2023-08-23T18:19:32.331Z,96685.38
2023-08-23T18:21:59.210Z,96677.44
2023-08-23T18:24:26.092Z,96684.97
2023-08-23T18:26:52.988Z,96687.13
2023-08-23T18:29:19.837Z,96688.50
2023-08-23T18:31:46.662Z,96688.09
2023-08-23T18:34:13.556Z,96689.91
2023-08-23T18:36:40.439Z,96697.66
2023-08-23T18:39:07.293Z,96696.38
2023-08-23T18:41:34.197Z,96692.50
2023-08-23T18:44:01.145Z,96701.59
2023-08-23T18:46:28.849Z,96707.69
2023-08-23T18:48:55.713Z,96713.16
2023-08-23T18:51:22.633Z,96716.81
2023-08-23T18:53:49.491Z,96724.69
2023-08-23T18:56:16.468Z,96728.19
2023-08-23T18:58:43.350Z,96726.81
2023-08-23T19:01:10.240Z,96717.69
2023-08-23T19:03:38.445Z,96722.69
2023-08-23T19:06:05.498Z,96720.47
2023-08-23T19:08:32.376Z,96723.81
2023-08-23T19:11:00.012Z,96731.34
2023-08-23T19:13:27.006Z,96728.56
2023-08-23T19:15:53.867Z,96731.28
2023-08-23T19:18:21.523Z,96740.44
2023-08-23T19:20:51.775Z,96742.69
2023-08-23T19:23:18.728Z,96743.28
2023-08-23T19:25:45.800Z,96746.69
2023-08-23T19:28:12.821Z,96753.72
2023-08-23T19:30:39.719Z,96751.53
2023-08-23T19:33:06.756Z,96745.88
2023-08-23T19:35:45.692Z,96747.19
2023-08-23T19:38:13.338Z,96752.81
2023-08-23T19:40:40.253Z,96751.31
2023-08-23T19:43:07.634Z,96753.06
2023-08-23T19:45:34.642Z,96758.16
2023-08-23T19:48:10.972Z,96759.19
2023-08-23T19:50:49.238Z,96772.69
2023-08-23T19:53:16.304Z,96771.72
2023-08-23T19:55:43.219Z,96759.91
2023-08-23T19:58:10.068Z,96753.72
2023-08-23T20:00:36.994Z,96756.44
2023-08-23T20:03:04.457Z,96759.91
2023-08-23T20:05:31.437Z,96760.28
2023-08-23T20:08:01.303Z,96763.34
2023-08-23T20:10:29.123Z,96756.94
2023-08-23T20:12:56.061Z,96753.25
2023-08-23T20:15:22.994Z,96764.84
2023-08-23T20:17:50.240Z,96763.56
2023-08-23T20:20:17.501Z,96762.50
2023-08-23T20:22:44.317Z,96764.13
2023-08-23T20:25:11.321Z,96762.50
2023-08-23T20:27:38.143Z,96763.94
2023-08-23T20:30:06.161Z,96762.38
2023-08-23T20:32:33.057Z,96764.91
2023-08-23T20:34:59.946Z,96767.56
2023-08-23T20:37:27.346Z,96769.16
2023-08-23T20:39:54.294Z,96762.16
2023-08-23T20:42:23.007Z,96766.41
2023-08-23T20:44:49.883Z,96759.66
2023-08-23T20:47:16.705Z,96769.63
2023-08-23T20:49:43.524Z,96763.66
2023-08-23T20:52:10.418Z,96766.63
2023-08-23T20:54:37.335Z,96768.03
2023-08-23T20:57:04.320Z,96768.03
2023-08-23T20:59:31.145Z,96773.16
2023-08-23T21:01:58.033Z,96768.56
2023-08-23T21:04:26.531Z,96770.19
2023-08-23T21:06:53.533Z,96766.97
2023-08-23T21:09:20.367Z,96775.38
2023-08-23T21:11:47.194Z,96775.69
2023-08-23T21:14:14.057Z,96773.56
2023-08-23T21:16:41.112Z,96786.69
2023-08-23T21:19:08.197Z,96786.47
2023-08-23T21:21:35.070Z,96784.38
2023-08-23T21:24:02.085Z,96780.69
2023-08-23T21:26:29.265Z,96777.47
2023-08-23T21:28:56.177Z,96785.09
2023-08-23T21:31:23.207Z,96775.94
2023-08-23T21:33:50.258Z,96782.41
2023-08-23T21:36:18.112Z,96779.22
2023-08-23T21:38:45.809Z,96777.88
2023-08-23T21:41:13.438Z,96782.59
2023-08-23T21:43:40.347Z,96780.72
2023-08-23T21:46:07.280Z,96787.44
2023-08-23T21:48:34.375Z,96793.38
2023-08-23T21:51:01.307Z,96785.78
2023-08-23T21:53:28.199Z,96783.72
2023-08-23T21:55:56.512Z,96785.84
2023-08-23T21:58:29.885Z,96782.03
2023-08-23T22:01:04.202Z,96788.25
2023-08-23T22:03:39.801Z,96782.16
2023-08-23T22:06:12.341Z,96783.56
2023-08-23T22:08:46.942Z,96793.19
2023-08-23T22:11:15.802Z,96785.06
2023-08-23T22:13:43.979Z,96782.09
2023-08-23T22:16:11.312Z,96786.31
2023-08-23T22:18:38.906Z,96782.59
2023-08-23T22:21:08.230Z,96780.50
2023-08-23T22:23:35.891Z,96782.59
2023-08-23T22:26:04.749Z,96775.59
2023-08-23T22:28:32.575Z,96785.53
2023-08-23T22:30:59.854Z,96777.44
2023-08-23T22:33:27.519Z,96778.47
2023-08-23T22:35:57.502Z,96775.50
2023-08-23T22:38:25.387Z,96781.97
2023-08-23T22:40:52.552Z,96775.25
2023-08-23T22:43:19.897Z,96779.28
2023-08-23T22:45:47.072Z,96778.78
2023-08-23T22:48:14.119Z,96774.47
2023-08-23T22:50:41.360Z,96783.91
2023-08-23T22:53:08.185Z,96783.13
2023-08-23T22:55:35.301Z,96780.22
2023-08-23T22:58:02.194Z,96784.56
2023-08-23T23:00:29.355Z,96778.16
2023-08-23T23:02:58.036Z,96772.28
2023-08-23T23:05:25.379Z,96773.63
2023-08-23T23:07:52.469Z,96767.75
2023-08-23T23:10:22.145Z,96772.09
2023-08-23T23:12:49.149Z,96772.69
2023-08-23T23:15:16.400Z,96769.50
2023-08-23T23:17:43.874Z,96760.38
2023-08-23T23:20:14.211Z,96759.84
2023-08-23T23:22:41.662Z,96764.13
2023-08-23T23:25:09.905Z,96766.56
2023-08-23T23:27:37.777Z,96758.75
2023-08-23T23:30:06.240Z,96760.41
2023-08-23T23:32:34.329Z,96752.38
2023-08-23T23:35:01.423Z,96751.59
2023-08-23T23:37:28.769Z,96744.09
2023-08-23T23:39:55.825Z,96741.97
2023-08-23T23:42:22.949Z,96746.03
2023-08-23T23:44:49.945Z,96744.44
2023-08-23T23:47:16.938Z,96741.75
2023-08-23T23:49:43.838Z,96737.47
2023-08-23T23:52:10.825Z,96730.22
2023-08-23T23:54:37.719Z,96733.44
2023-08-23T23:57:05.887Z,96730.25
2023-08-23T23:59:32.802Z,96734.53
